Tarantella — A8AI5 — position and weather

sailwx.info

Track history (hours):
 
Tides and Currents Weather Stations Pressure Air Temp Water Temp Dewpoint Dewpoint Depression Visibility Wind Speed Wind Dir Waves Ship Positions

Tarantella

Last reported at 2017-Nov-11 09:02 UTC. Time now 2017-Nov-18 04:56 UTC.
Position N 19°39' W 095°48'.

Length 183 m; draft 8 m.

Type: Ship. MMSI: 636011604.

Date/timePositionNaut miles runAvg speedWind from/ knotsBaromVisibWave heightAir tempDewpointWater temp
2017-Nov-11 09:02N 19°39' W 095°48'110.8
2017-Nov-11 08:58N 19°38' W 095°48'510.8
2017-Nov-11 08:31N 19°34' W 095°51'510.7
2017-Nov-11 08:00N 19°30' W 095°55'510.6
2017-Nov-11 07:31N 19°25' W 095°56'510.9
2017-Nov-11 07:01N 19°19' W 095°57'510.3
2017-Nov-11 06:31N 19°14' W 095°58'611.0
2017-Nov-11 06:00N 19°11' W 096°03'4 8.4
2017-Nov-11 05:30N 19°12' W 096°07'0 0.4
2017-Nov-11 04:56N 19°12' W 096°07'0 0.0
2017-Nov-11 04:29N 19°12' W 096°07'0 0.0
2017-Nov-11 03:59N 19°12' W 096°07'0 0.0
2017-Nov-11 03:28N 19°12' W 096°07'0 0.0
2017-Nov-11 02:58N 19°12' W 096°07'0 0.0
2017-Nov-11 02:28N 19°12' W 096°07'0 0.0
2017-Nov-11 01:58N 19°12' W 096°07'0 0.0
2017-Nov-11 01:28N 19°12' W 096°07'0 0.0
2017-Nov-11 01:00N 19°12' W 096°07'0 0.0
2017-Nov-11 00:30N 19°12' W 096°07'0 0.0
2017-Nov-11 00:00N 19°12' W 096°07'0 0.0
2017-Nov-10 23:30N 19°12' W 096°07'0 0.0
2017-Nov-10 23:00N 19°12' W 096°07'0 0.0
2017-Nov-10 22:26N 19°12' W 096°07'0 0.0
2017-Nov-10 21:59N 19°12' W 096°07'0 0.0
2017-Nov-10 21:29N 19°12' W 096°07'0 0.0
2017-Nov-10 20:59N 19°12' W 096°07'0 0.0
2017-Nov-10 20:25N 19°12' W 096°07'0 0.0
2017-Nov-10 19:58N 19°12' W 096°07'0 0.0
2017-Nov-10 19:22N 19°12' W 096°07'0 0.0
2017-Nov-10 19:00N 19°12' W 096°07'0 0.0
2017-Nov-10 18:28N 19°12' W 096°07'0 0.0
2017-Nov-10 18:00N 19°12' W 096°07'0 0.0
2017-Nov-10 17:30N 19°12' W 096°07'0 0.3
2017-Nov-10 17:01N 19°12' W 096°07'2 4.6
2017-Nov-10 16:30N 19°12' W 096°05'510.3
2017-Nov-10 16:00N 19°09' W 096°00'1 2.0
2017-Nov-10 15:28N 19°08' W 095°60'0 0.0
2017-Nov-10 14:52N 19°08' W 095°60'0 0.1
2017-Nov-10 14:28N 19°08' W 095°60'0 0.0
2017-Nov-10 13:58N 19°08' W 095°60'0 0.0
2017-Nov-10 13:21N 19°08' W 095°60'0 0.0
2017-Nov-10 12:57N 19°08' W 095°60'0 0.0
2017-Nov-10 12:21N 19°08' W 095°60'0 0.1
2017-Nov-10 11:57N 19°08' W 095°60'0 0.0
2017-Nov-10 11:26N 19°08' W 095°60'0 0.0
2017-Nov-10 10:56N 19°08' W 095°60'0 0.0
2017-Nov-10 10:23N 19°08' W 095°60'0 0.1
2017-Nov-10 09:56N 19°08' W 095°60'0 0.1
2017-Nov-10 09:26N 19°08' W 095°60'0 0.0
2017-Nov-10 08:55N 19°08' W 095°60'0 0.1
2017-Nov-10 08:25N 19°08' W 095°60'0 0.0
2017-Nov-10 07:55N 19°08' W 095°60'0 0.1
2017-Nov-10 07:25N 19°08' W 095°60'0 0.1
2017-Nov-10 07:01N 19°08' W 095°60'0 0.0
2017-Nov-10 06:30N 19°08' W 095°60'0 0.1
2017-Nov-10 06:00N 19°08' W 095°60'0 0.0
2017-Nov-10 05:30N 19°08' W 095°60'0 0.0
2017-Nov-10 04:48N 19°08' W 095°60'0 0.0
2017-Nov-10 04:23N 19°08' W 095°60'0 0.0
2017-Nov-10 03:59N 19°08' W 095°60'0 0.0
2017-Nov-10 03:29N 19°08' W 095°60'0 0.0
2017-Nov-10 02:59N 19°08' W 095°60'0 0.0
2017-Nov-10 02:29N 19°08' W 095°60'0 0.0
2017-Nov-10 01:58N 19°08' W 095°60'0 0.0
2017-Nov-10 01:22N 19°08' W 095°60'0 0.1
2017-Nov-10 00:58N 19°08' W 095°60'0 0.1
2017-Nov-10 00:28N 19°08' W 095°60'0 0.0
2017-Nov-09 23:51N 19°08' W 095°60'0 0.0
2017-Nov-09 23:21N 19°08' W 095°60'0 0.0
2017-Nov-09 22:57N 19°08' W 095°60'0 0.0
2017-Nov-09 22:27N 19°08' W 095°60'0 0.0
2017-Nov-09 21:57N 19°08' W 095°60'0 0.0
2017-Nov-09 21:26N 19°08' W 095°60'0 0.0
2017-Nov-09 20:56N 19°08' W 095°60'0 0.0
2017-Nov-09 20:26N 19°08' W 095°60'0 0.0
2017-Nov-09 19:56N 19°08' W 095°60'0 0.2
2017-Nov-09 19:30N 19°08' W 095°60'3 6.9
2017-Nov-09 19:00N 19°10' W 096°03'5 9.2
2017-Nov-09 18:30N 19°12' W 096°07'0 0.7
2017-Nov-09 18:01N 19°12' W 096°07'0 0.0
2017-Nov-09 17:30N 19°12' W 096°07'0 0.0
2017-Nov-09 16:54N 19°12' W 096°07'0 0.0
2017-Nov-09 16:30N 19°12' W 096°07'0 0.0
2017-Nov-09 16:00N 19°12' W 096°07'0 0.0
2017-Nov-09 15:29N 19°12' W 096°07'0 0.0
2017-Nov-09 14:59N 19°12' W 096°07'0 0.0
2017-Nov-09 14:26N 19°12' W 096°07'0 0.0
2017-Nov-09 13:56N 19°12' W 096°07'0 0.0
2017-Nov-09 13:29N 19°12' W 096°07'0 0.0
2017-Nov-09 12:58N 19°12' W 096°07'0 0.0
2017-Nov-09 12:28N 19°12' W 096°07'0 0.0
2017-Nov-09 11:58N 19°12' W 096°07'0 0.0
2017-Nov-09 11:28N 19°12' W 096°07'0 0.0
2017-Nov-09 11:00N 19°12' W 096°07'0 0.0
2017-Nov-09 10:30N 19°12' W 096°07'0 0.0
2017-Nov-09 10:00N 19°12' W 096°07'0 0.0
2017-Nov-09 09:30N 19°12' W 096°07'0 0.0
2017-Nov-09 09:00N 19°12' W 096°07'0 0.0
2017-Nov-09 08:29N 19°12' W 096°07'0 0.0
2017-Nov-09 07:59N 19°12' W 096°07'0 0.0
2017-Nov-09 07:29N 19°12' W 096°07'0 0.0
2017-Nov-09 06:56N 19°12' W 096°07'0 0.0
2017-Nov-09 06:29N 19°12' W 096°07'0 0.0
2017-Nov-09 05:58N 19°12' W 096°07'0 0.0
2017-Nov-09 05:28N 19°12' W 096°07'0 0.0
2017-Nov-09 04:58N 19°12' W 096°07'0 0.0
2017-Nov-09 04:28N 19°12' W 096°07'0 0.0
2017-Nov-09 04:00N 19°12' W 096°07'0 0.0
2017-Nov-09 03:30N 19°12' W 096°07'0 0.0
2017-Nov-09 03:00N 19°12' W 096°07'0 0.0
2017-Nov-09 02:27N 19°12' W 096°07'0 0.0
2017-Nov-09 02:00N 19°12' W 096°07'0 0.0
2017-Nov-09 01:29N 19°12' W 096°07'0 0.0
2017-Nov-09 00:59N 19°12' W 096°07'0 0.0
2017-Nov-09 00:29N 19°12' W 096°07'0 0.0
2017-Nov-08 23:56N 19°12' W 096°07'0 0.0
2017-Nov-08 23:28N 19°12' W 096°07'0 0.0
2017-Nov-08 22:52N 19°12' W 096°07'0 0.0
2017-Nov-08 22:28N 19°12' W 096°07'0 0.0
2017-Nov-08 21:58N 19°12' W 096°07'0 0.0
2017-Nov-08 21:28N 19°12' W 096°07'0 0.0
2017-Nov-08 21:00N 19°12' W 096°07'0 0.0
2017-Nov-08 20:30N 19°12' W 096°07'0 0.0
2017-Nov-08 20:00N 19°12' W 096°07'0 0.0
2017-Nov-08 19:30N 19°12' W 096°07'0 0.0
2017-Nov-08 19:00N 19°12' W 096°07'0 0.0
2017-Nov-08 18:29N 19°12' W 096°07'0 0.0
2017-Nov-08 17:59N 19°12' W 096°07'0 0.0
2017-Nov-08 17:29N 19°12' W 096°07'0 0.0
2017-Nov-08 16:59N 19°12' W 096°07'0 0.0
2017-Nov-08 16:28N 19°12' W 096°07'0 0.0
2017-Nov-08 15:58N 19°12' W 096°07'0 0.0
2017-Nov-08 15:28N 19°12' W 096°07'0 0.0
2017-Nov-08 14:58N 19°12' W 096°07'0 0.0
2017-Nov-08 14:25N 19°12' W 096°07'0 0.0
2017-Nov-08 14:00N 19°12' W 096°07'0 0.0
2017-Nov-08 13:30N 19°12' W 096°07'0 0.0
2017-Nov-08 13:00N 19°12' W 096°07'0 0.0
2017-Nov-08 12:27N 19°12' W 096°07'0 0.0
2017-Nov-08 11:53N 19°12' W 096°07'0 0.0
2017-Nov-08 11:29N 19°12' W 096°07'0 0.0
2017-Nov-08 10:59N 19°12' W 096°07'0 0.0
2017-Nov-08 10:26N 19°12' W 096°07'0 0.0
2017-Nov-08 09:53N 19°12' W 096°07'0 0.0
2017-Nov-08 09:28N 19°12' W 096°07'0 0.0
2017-Nov-08 08:55N 19°12' W 096°07'0 0.0
2017-Nov-08 08:25N 19°12' W 096°07'0 0.0
2017-Nov-08 07:58N 19°12' W 096°07'0 0.0
2017-Nov-08 07:31N 19°12' W 096°07'0 0.0
2017-Nov-08 07:00N 19°12' W 096°07'0 0.0
2017-Nov-08 06:30N 19°12' W 096°07'0 0.0
2017-Nov-08 06:00N 19°12' W 096°07'0 0.0
2017-Nov-08 05:30N 19°12' W 096°07'0 0.0
2017-Nov-08 04:59N 19°12' W 096°07'0 0.0
2017-Nov-08 04:26N 19°12' W 096°07'0 0.0
2017-Nov-08 03:59N 19°12' W 096°07'0 0.0
2017-Nov-08 03:29N 19°12' W 096°07'0 0.0
2017-Nov-08 02:59N 19°12' W 096°07'0 0.0
2017-Nov-08 02:28N 19°12' W 096°07'0 0.0
2017-Nov-08 01:58N 19°12' W 096°07'0 0.0
2017-Nov-08 01:28N 19°12' W 096°07'0 0.0
2017-Nov-08 00:58N 19°12' W 096°07'0 0.0
2017-Nov-08 00:31N 19°12' W 096°07'0 0.0
2017-Nov-07 23:57N 19°12' W 096°07'0 0.0
2017-Nov-07 23:30N 19°12' W 096°07'0 0.0
2017-Nov-07 23:00N 19°12' W 096°07'0 0.0
2017-Nov-07 22:30N 19°12' W 096°07'0 0.0
2017-Nov-07 21:56N 19°12' W 096°07'0 0.0
2017-Nov-07 21:29N 19°12' W 096°07'0 0.0
2017-Nov-07 20:56N 19°12' W 096°07'0 0.0
2017-Nov-07 20:29N 19°12' W 096°07'0 0.0
2017-Nov-07 19:59N 19°12' W 096°07'0 0.0
2017-Nov-07 19:28N 19°12' W 096°07'0 0.0
2017-Nov-07 18:58N 19°12' W 096°07'0 0.0
2017-Nov-07 18:28N 19°12' W 096°07'0 0.0
2017-Nov-07 17:58N 19°12' W 096°07'0 0.0
2017-Nov-07 17:30N 19°12' W 096°07'0 0.0
2017-Nov-07 17:00N 19°12' W 096°07'0 0.0
2017-Nov-07 16:24N 19°12' W 096°07'0 0.0
2017-Nov-07 16:00N 19°12' W 096°07'0 0.0
2017-Nov-07 15:24N 19°12' W 096°07'0 0.0
2017-Nov-07 14:56N 19°12' W 096°07'0 0.0
2017-Nov-07 14:29N 19°12' W 096°07'0 0.0
2017-Nov-07 13:53N 19°12' W 096°07'0 0.0
2017-Nov-07 13:29N 19°12' W 096°07'0 0.0
2017-Nov-07 12:55N 19°12' W 096°07'0 0.0
2017-Nov-07 12:28N 19°12' W 096°07'1 1.4
2017-Nov-07 12:00N 19°12' W 096°07'4 7.0
2017-Nov-07 11:30N 19°11' W 096°03'3 5.9
2017-Nov-07 11:00N 19°10' W 096°00'1 1.7
2017-Nov-07 10:26N 19°09' W 096°00'0 0.0
2017-Nov-07 09:56N 19°09' W 096°00'0 0.0
2017-Nov-07 09:26N 19°09' W 096°00'0 0.0
2017-Nov-07 08:56N 19°09' W 096°00'0 0.0
2017-Nov-07 08:26N 19°09' W 096°00'0 0.0
2017-Nov-07 07:55N 19°09' W 096°00'0 0.0
2017-Nov-07 07:25N 19°09' W 096°00'0 0.0
2017-Nov-07 06:49N 19°09' W 096°00'0 0.0
2017-Nov-07 06:25N 19°09' W 096°00'0 0.0
2017-Nov-07 05:55N 19°09' W 096°00'0 0.0
2017-Nov-07 05:30N 19°09' W 096°00'0 0.0
2017-Nov-07 05:00N 19°09' W 096°00'0 0.0
2017-Nov-07 04:24N 19°09' W 096°00'0 0.0
2017-Nov-07 04:00N 19°09' W 096°00'0 0.0
2017-Nov-07 03:30N 19°09' W 096°00'0 0.0
2017-Nov-07 02:59N 19°09' W 096°00'0 0.0
2017-Nov-07 02:29N 19°09' W 096°00'0 0.0
2017-Nov-07 01:59N 19°09' W 096°00'0 0.0
2017-Nov-07 01:29N 19°09' W 096°00'0 0.0
2017-Nov-07 00:52N 19°09' W 096°00'0 0.0
2017-Nov-07 00:28N 19°09' W 096°00'0 0.0
2017-Nov-06 23:58N 19°09' W 096°00'0 0.0
2017-Nov-06 23:28N 19°09' W 096°00'0 0.0
2017-Nov-06 22:58N 19°09' W 096°00'0 0.0
2017-Nov-06 22:27N 19°09' W 096°00'0 0.0
2017-Nov-06 21:57N 19°09' W 096°00'0 0.0
2017-Nov-06 21:27N 19°09' W 096°00'0 0.0
2017-Nov-06 20:57N 19°09' W 096°00'0 0.0
2017-Nov-06 20:29N 19°09' W 096°00'0 0.0
2017-Nov-06 02:25N 19°09' W 096°00'0 0.0
2017-Nov-06 02:00N 19°09' W 096°00'0 0.0
2017-Nov-06 01:30N 19°09' W 096°00'0 0.0
2017-Nov-06 01:00N 19°09' W 096°00'0 0.0
2017-Nov-06 00:30N 19°09' W 096°00'0 0.0
2017-Nov-06 00:00N 19°09' W 096°00'0 0.0
2017-Nov-05 23:29N 19°09' W 096°00'0 0.0
2017-Nov-05 22:59N 19°09' W 096°00'0 0.0
2017-Nov-05 22:29N 19°09' W 096°00'0 0.0
2017-Nov-05 21:59N 19°09' W 096°00'0 0.0
2017-Nov-05 21:28N 19°09' W 096°00'0 0.0
2017-Nov-05 20:46N 19°09' W 096°00'0 0.0
2017-Nov-05 20:28N 19°09' W 096°00'0 0.0
2017-Nov-05 19:58N 19°09' W 096°00'0 0.0
2017-Nov-05 19:28N 19°09' W 096°00'0 0.0
2017-Nov-05 18:57N 19°09' W 096°00'0 0.0
2017-Nov-05 18:27N 19°09' W 096°00'0 0.0
2017-Nov-05 17:57N 19°09' W 096°00'0 0.0
2017-Nov-05 17:27N 19°09' W 096°00'0 0.0
2017-Nov-05 16:56N 19°09' W 096°00'0 0.0
2017-Nov-05 16:26N 19°09' W 096°00'0 0.0
2017-Nov-05 15:56N 19°09' W 096°00'0 0.0
2017-Nov-05 15:26N 19°09' W 096°00'0 0.0
2017-Nov-05 14:56N 19°09' W 096°00'0 0.0
2017-Nov-05 14:25N 19°09' W 096°00'0 0.0
2017-Nov-05 13:55N 19°09' W 096°00'0 0.0
2017-Nov-05 13:25N 19°09' W 096°00'0 0.0
2017-Nov-05 12:55N 19°09' W 096°00'0 0.0
2017-Nov-05 12:25N 19°09' W 096°00'0 0.0
2017-Nov-05 12:00N 19°09' W 096°00'0 0.0
2017-Nov-05 11:30N 19°09' W 096°00'0 0.0
2017-Nov-05 11:00N 19°09' W 096°00'0 0.0
2017-Nov-05 10:30N 19°09' W 096°00'0 0.0
2017-Nov-05 10:00N 19°09' W 096°00'0 0.0
2017-Nov-05 09:23N 19°09' W 096°00'0 0.0
2017-Nov-05 08:59N 19°09' W 096°00'0 0.0
2017-Nov-05 08:29N 19°09' W 096°00'0 0.0
2017-Nov-05 07:59N 19°09' W 096°00'0 0.0
2017-Nov-05 07:28N 19°09' W 096°00'0 0.0
2017-Nov-05 06:58N 19°09' W 096°00'0 0.0
2017-Nov-05 06:28N 19°09' W 096°00'0 0.0
2017-Nov-05 05:58N 19°09' W 096°00'0 0.0
2017-Nov-05 05:28N 19°09' W 096°00'0 0.0
2017-Nov-05 04:57N 19°09' W 096°00'0 0.0
2017-Nov-05 04:27N 19°09' W 096°00'0 0.0
2017-Nov-05 03:57N 19°09' W 096°00'0 0.0
2017-Nov-05 03:27N 19°09' W 096°00'0 0.0
2017-Nov-05 02:56N 19°09' W 096°00'0 0.0
2017-Nov-05 02:26N 19°09' W 096°00'0 0.0
2017-Nov-05 01:56N 19°09' W 096°00'0 0.0
2017-Nov-05 01:26N 19°09' W 096°00'0 0.0
2017-Nov-05 00:50N 19°09' W 096°00'0 0.0
2017-Nov-05 00:25N 19°09' W 096°00'0 0.0
2017-Nov-04 23:55N 19°09' W 096°00'0 0.0
2017-Nov-04 23:19N 19°09' W 096°00'0 0.0
2017-Nov-04 22:55N 19°09' W 096°00'0 0.0
2017-Nov-04 22:24N 19°09' W 096°00'0 0.0
2017-Nov-04 22:00N 19°09' W 096°00'0 0.0
2017-Nov-04 21:30N 19°09' W 096°00'0 0.0
2017-Nov-04 21:00N 19°09' W 096°00'0 0.0
2017-Nov-04 20:30N 19°09' W 096°00'0 0.0
2017-Nov-04 19:59N 19°09' W 096°00'0 0.0
2017-Nov-04 19:17N 19°09' W 096°00'0 0.0
2017-Nov-04 18:59N 19°09' W 096°00'0 0.0
2017-Nov-04 18:29N 19°09' W 096°00'0 0.0
2017-Nov-04 17:59N 19°09' W 096°00'0 0.0
2017-Nov-04 17:28N 19°09' W 096°00'0 0.0
2017-Nov-04 16:58N 19°09' W 096°00'0 0.0
2017-Nov-04 16:28N 19°09' W 096°00'0 0.0
2017-Nov-04 15:58N 19°09' W 096°00'0 0.0
2017-Nov-04 15:15N 19°09' W 096°00'0 0.0
2017-Nov-04 14:57N 19°09' W 096°00'0 0.0
2017-Nov-04 14:27N 19°09' W 096°00'0 0.0
2017-Nov-04 13:57N 19°09' W 096°00'0 0.0
2017-Nov-04 13:21N 19°09' W 096°00'0 0.0
2017-Nov-04 12:56N 19°09' W 096°00'0 0.0
2017-Nov-04 12:26N 19°09' W 096°00'0 0.0
2017-Nov-04 11:56N 19°09' W 096°00'0 0.0
2017-Nov-04 11:20N 19°09' W 096°00'0 0.0
2017-Nov-04 10:55N 19°09' W 096°00'0 0.0
2017-Nov-04 10:19N 19°09' W 096°00'0 0.0
2017-Nov-04 09:55N 19°09' W 096°00'0 0.0
2017-Nov-04 09:25N 19°09' W 096°00'0 0.0
2017-Nov-04 08:55N 19°09' W 096°00'0 0.0
2017-Nov-04 08:30N 19°09' W 096°00'0 0.0
2017-Nov-04 08:00N 19°09' W 096°00'0 0.0
2017-Nov-04 07:00N 19°09' W 096°00'0 0.0
2017-Nov-04 06:30N 19°09' W 096°00'0 0.0
2017-Nov-04 05:59N 19°09' W 096°00'0 0.0
2017-Nov-04 05:23N 19°09' W 096°00'0 0.0
2017-Nov-04 04:59N 19°09' W 096°00'0 0.0
2017-Nov-04 04:23N 19°09' W 096°00'0 0.0
2017-Nov-04 03:59N 19°09' W 096°00'0 0.0
2017-Nov-04 03:28N 19°09' W 096°00'0 0.0
2017-Nov-04 02:52N 19°09' W 096°00'0 0.0
2017-Nov-04 02:28N 19°09' W 096°00'0 0.0
2017-Nov-04 01:58N 19°09' W 096°00'0 0.0
2017-Nov-04 01:27N 19°09' W 096°00'0 0.0
2017-Nov-04 00:57N 19°09' W 096°00'0 0.0
2017-Nov-04 00:16N 19°09' W 096°00'0 0.3
2017-Nov-04 00:00N 19°09' W 096°00'2 3.9
2017-Nov-03 23:31N 19°11' W 095°59'4 8.2
2017-Nov-03 23:00N 19°14' W 095°56'611.3
2017-Nov-03 22:30N 19°15' W 095°50'611.6
2017-Nov-03 22:01N 19°14' W 095°44'611.9
2017-Nov-03 21:30N 19°11' W 095°38'  
Track history (hours):
 
Tides and Currents Weather Stations Pressure Air Temp Water Temp Dewpoint Dewpoint Depression Visibility Wind Speed Wind Dir Waves Ship Positions

Tarantella

Last reported at 2017-Nov-11 09:02 UTC. Time now 2017-Nov-18 04:56 UTC.
Position N 19°39' W 095°48'.

Length 183 m; draft 8 m.

Type: Ship. MMSI: 636011604.

Date/timePositionNaut miles runAvg speedWind from/ knotsBaromVisibWave heightAir tempDewpointWater temp
2017-Nov-11 09:02N 19°39' W 095°48'110.8
2017-Nov-11 08:58N 19°38' W 095°48'510.8
2017-Nov-11 08:31N 19°34' W 095°51'510.7
2017-Nov-11 08:00N 19°30' W 095°55'510.6
2017-Nov-11 07:31N 19°25' W 095°56'510.9
2017-Nov-11 07:01N 19°19' W 095°57'510.3
2017-Nov-11 06:31N 19°14' W 095°58'611.0
2017-Nov-11 06:00N 19°11' W 096°03'4 8.4
2017-Nov-11 05:30N 19°12' W 096°07'0 0.4
2017-Nov-11 04:56N 19°12' W 096°07'0 0.0
2017-Nov-11 04:29N 19°12' W 096°07'0 0.0
2017-Nov-11 03:59N 19°12' W 096°07'0 0.0
2017-Nov-11 03:28N 19°12' W 096°07'0 0.0
2017-Nov-11 02:58N 19°12' W 096°07'0 0.0
2017-Nov-11 02:28N 19°12' W 096°07'0 0.0
2017-Nov-11 01:58N 19°12' W 096°07'0 0.0
2017-Nov-11 01:28N 19°12' W 096°07'0 0.0
2017-Nov-11 01:00N 19°12' W 096°07'0 0.0
2017-Nov-11 00:30N 19°12' W 096°07'0 0.0
2017-Nov-11 00:00N 19°12' W 096°07'0 0.0
2017-Nov-10 23:30N 19°12' W 096°07'0 0.0
2017-Nov-10 23:00N 19°12' W 096°07'0 0.0
2017-Nov-10 22:26N 19°12' W 096°07'0 0.0
2017-Nov-10 21:59N 19°12' W 096°07'0 0.0
2017-Nov-10 21:29N 19°12' W 096°07'0 0.0
2017-Nov-10 20:59N 19°12' W 096°07'0 0.0
2017-Nov-10 20:25N 19°12' W 096°07'0 0.0
2017-Nov-10 19:58N 19°12' W 096°07'0 0.0
2017-Nov-10 19:22N 19°12' W 096°07'0 0.0
2017-Nov-10 19:00N 19°12' W 096°07'0 0.0
2017-Nov-10 18:28N 19°12' W 096°07'0 0.0
2017-Nov-10 18:00N 19°12' W 096°07'0 0.0
2017-Nov-10 17:30N 19°12' W 096°07'0 0.3
2017-Nov-10 17:01N 19°12' W 096°07'2 4.6
2017-Nov-10 16:30N 19°12' W 096°05'510.3
2017-Nov-10 16:00N 19°09' W 096°00'1 2.0
2017-Nov-10 15:28N 19°08' W 095°60'0 0.0
2017-Nov-10 14:52N 19°08' W 095°60'0 0.1
2017-Nov-10 14:28N 19°08' W 095°60'0 0.0
2017-Nov-10 13:58N 19°08' W 095°60'0 0.0
2017-Nov-10 13:21N 19°08' W 095°60'0 0.0
2017-Nov-10 12:57N 19°08' W 095°60'0 0.0
2017-Nov-10 12:21N 19°08' W 095°60'0 0.1
2017-Nov-10 11:57N 19°08' W 095°60'0 0.0
2017-Nov-10 11:26N 19°08' W 095°60'0 0.0
2017-Nov-10 10:56N 19°08' W 095°60'0 0.0
2017-Nov-10 10:23N 19°08' W 095°60'0 0.1
2017-Nov-10 09:56N 19°08' W 095°60'0 0.1
2017-Nov-10 09:26N 19°08' W 095°60'0 0.0
2017-Nov-10 08:55N 19°08' W 095°60'0 0.1
2017-Nov-10 08:25N 19°08' W 095°60'0 0.0
2017-Nov-10 07:55N 19°08' W 095°60'0 0.1
2017-Nov-10 07:25N 19°08' W 095°60'0 0.1
2017-Nov-10 07:01N 19°08' W 095°60'0 0.0
2017-Nov-10 06:30N 19°08' W 095°60'0 0.1
2017-Nov-10 06:00N 19°08' W 095°60'0 0.0
2017-Nov-10 05:30N 19°08' W 095°60'0 0.0
2017-Nov-10 04:48N 19°08' W 095°60'0 0.0
2017-Nov-10 04:23N 19°08' W 095°60'0 0.0
2017-Nov-10 03:59N 19°08' W 095°60'0 0.0
2017-Nov-10 03:29N 19°08' W 095°60'0 0.0
2017-Nov-10 02:59N 19°08' W 095°60'0 0.0
2017-Nov-10 02:29N 19°08' W 095°60'0 0.0
2017-Nov-10 01:58N 19°08' W 095°60'0 0.0
2017-Nov-10 01:22N 19°08' W 095°60'0 0.1
2017-Nov-10 00:58N 19°08' W 095°60'0 0.1
2017-Nov-10 00:28N 19°08' W 095°60'0 0.0
2017-Nov-09 23:51N 19°08' W 095°60'0 0.0
2017-Nov-09 23:21N 19°08' W 095°60'0 0.0
2017-Nov-09 22:57N 19°08' W 095°60'0 0.0
2017-Nov-09 22:27N 19°08' W 095°60'0 0.0
2017-Nov-09 21:57N 19°08' W 095°60'0 0.0
2017-Nov-09 21:26N 19°08' W 095°60'0 0.0
2017-Nov-09 20:56N 19°08' W 095°60'0 0.0
2017-Nov-09 20:26N 19°08' W 095°60'0 0.0
2017-Nov-09 19:56N 19°08' W 095°60'0 0.2
2017-Nov-09 19:30N 19°08' W 095°60'3 6.9
2017-Nov-09 19:00N 19°10' W 096°03'5 9.2
2017-Nov-09 18:30N 19°12' W 096°07'0 0.7
2017-Nov-09 18:01N 19°12' W 096°07'0 0.0
2017-Nov-09 17:30N 19°12' W 096°07'0 0.0
2017-Nov-09 16:54N 19°12' W 096°07'0 0.0
2017-Nov-09 16:30N 19°12' W 096°07'0 0.0
2017-Nov-09 16:00N 19°12' W 096°07'0 0.0
2017-Nov-09 15:29N 19°12' W 096°07'0 0.0
2017-Nov-09 14:59N 19°12' W 096°07'0 0.0
2017-Nov-09 14:26N 19°12' W 096°07'0 0.0
2017-Nov-09 13:56N 19°12' W 096°07'0 0.0
2017-Nov-09 13:29N 19°12' W 096°07'0 0.0
2017-Nov-09 12:58N 19°12' W 096°07'0 0.0
2017-Nov-09 12:28N 19°12' W 096°07'0 0.0
2017-Nov-09 11:58N 19°12' W 096°07'0 0.0
2017-Nov-09 11:28N 19°12' W 096°07'0 0.0
2017-Nov-09 11:00N 19°12' W 096°07'0 0.0
2017-Nov-09 10:30N 19°12' W 096°07'0 0.0
2017-Nov-09 10:00N 19°12' W 096°07'0 0.0
2017-Nov-09 09:30N 19°12' W 096°07'0 0.0
2017-Nov-09 09:00N 19°12' W 096°07'0 0.0
2017-Nov-09 08:29N 19°12' W 096°07'0 0.0
2017-Nov-09 07:59N 19°12' W 096°07'0 0.0
2017-Nov-09 07:29N 19°12' W 096°07'0 0.0
2017-Nov-09 06:56N 19°12' W 096°07'0 0.0
2017-Nov-09 06:29N 19°12' W 096°07'0 0.0
2017-Nov-09 05:58N 19°12' W 096°07'0 0.0
2017-Nov-09 05:28N 19°12' W 096°07'0 0.0
2017-Nov-09 04:58N 19°12' W 096°07'0 0.0
2017-Nov-09 04:28N 19°12' W 096°07'0 0.0
2017-Nov-09 04:00N 19°12' W 096°07'0 0.0
2017-Nov-09 03:30N 19°12' W 096°07'0 0.0
2017-Nov-09 03:00N 19°12' W 096°07'0 0.0
2017-Nov-09 02:27N 19°12' W 096°07'0 0.0
2017-Nov-09 02:00N 19°12' W 096°07'0 0.0
2017-Nov-09 01:29N 19°12' W 096°07'0 0.0
2017-Nov-09 00:59N 19°12' W 096°07'0 0.0
2017-Nov-09 00:29N 19°12' W 096°07'0 0.0
2017-Nov-08 23:56N 19°12' W 096°07'0 0.0
2017-Nov-08 23:28N 19°12' W 096°07'0 0.0
2017-Nov-08 22:52N 19°12' W 096°07'0 0.0
2017-Nov-08 22:28N 19°12' W 096°07'0 0.0
2017-Nov-08 21:58N 19°12' W 096°07'0 0.0
2017-Nov-08 21:28N 19°12' W 096°07'0 0.0
2017-Nov-08 21:00N 19°12' W 096°07'0 0.0
2017-Nov-08 20:30N 19°12' W 096°07'0 0.0
2017-Nov-08 20:00N 19°12' W 096°07'0 0.0
2017-Nov-08 19:30N 19°12' W 096°07'0 0.0
2017-Nov-08 19:00N 19°12' W 096°07'0 0.0
2017-Nov-08 18:29N 19°12' W 096°07'0 0.0
2017-Nov-08 17:59N 19°12' W 096°07'0 0.0
2017-Nov-08 17:29N 19°12' W 096°07'0 0.0
2017-Nov-08 16:59N 19°12' W 096°07'0 0.0
2017-Nov-08 16:28N 19°12' W 096°07'0 0.0
2017-Nov-08 15:58N 19°12' W 096°07'0 0.0
2017-Nov-08 15:28N 19°12' W 096°07'0 0.0
2017-Nov-08 14:58N 19°12' W 096°07'0 0.0
2017-Nov-08 14:25N 19°12' W 096°07'0 0.0
2017-Nov-08 14:00N 19°12' W 096°07'0 0.0
2017-Nov-08 13:30N 19°12' W 096°07'0 0.0
2017-Nov-08 13:00N 19°12' W 096°07'0 0.0
2017-Nov-08 12:27N 19°12' W 096°07'0 0.0
2017-Nov-08 11:53N 19°12' W 096°07'0 0.0
2017-Nov-08 11:29N 19°12' W 096°07'0 0.0
2017-Nov-08 10:59N 19°12' W 096°07'0 0.0
2017-Nov-08 10:26N 19°12' W 096°07'0 0.0
2017-Nov-08 09:53N 19°12' W 096°07'0 0.0
2017-Nov-08 09:28N 19°12' W 096°07'0 0.0
2017-Nov-08 08:55N 19°12' W 096°07'0 0.0
2017-Nov-08 08:25N 19°12' W 096°07'0 0.0
2017-Nov-08 07:58N 19°12' W 096°07'0 0.0
2017-Nov-08 07:31N 19°12' W 096°07'0 0.0
2017-Nov-08 07:00N 19°12' W 096°07'0 0.0
2017-Nov-08 06:30N 19°12' W 096°07'0 0.0
2017-Nov-08 06:00N 19°12' W 096°07'0 0.0
2017-Nov-08 05:30N 19°12' W 096°07'0 0.0
2017-Nov-08 04:59N 19°12' W 096°07'0 0.0
2017-Nov-08 04:26N 19°12' W 096°07'0 0.0
2017-Nov-08 03:59N 19°12' W 096°07'0 0.0
2017-Nov-08 03:29N 19°12' W 096°07'0 0.0
2017-Nov-08 02:59N 19°12' W 096°07'0 0.0
2017-Nov-08 02:28N 19°12' W 096°07'0 0.0
2017-Nov-08 01:58N 19°12' W 096°07'0 0.0
2017-Nov-08 01:28N 19°12' W 096°07'0 0.0
2017-Nov-08 00:58N 19°12' W 096°07'0 0.0
2017-Nov-08 00:31N 19°12' W 096°07'0 0.0
2017-Nov-07 23:57N 19°12' W 096°07'0 0.0
2017-Nov-07 23:30N 19°12' W 096°07'0 0.0
2017-Nov-07 23:00N 19°12' W 096°07'0 0.0
2017-Nov-07 22:30N 19°12' W 096°07'0 0.0
2017-Nov-07 21:56N 19°12' W 096°07'0 0.0
2017-Nov-07 21:29N 19°12' W 096°07'0 0.0
2017-Nov-07 20:56N 19°12' W 096°07'0 0.0
2017-Nov-07 20:29N 19°12' W 096°07'0 0.0
2017-Nov-07 19:59N 19°12' W 096°07'0 0.0
2017-Nov-07 19:28N 19°12' W 096°07'0 0.0
2017-Nov-07 18:58N 19°12' W 096°07'0 0.0
2017-Nov-07 18:28N 19°12' W 096°07'0 0.0
2017-Nov-07 17:58N 19°12' W 096°07'0 0.0
2017-Nov-07 17:30N 19°12' W 096°07'0 0.0
2017-Nov-07 17:00N 19°12' W 096°07'0 0.0
2017-Nov-07 16:24N 19°12' W 096°07'0 0.0
2017-Nov-07 16:00N 19°12' W 096°07'0 0.0
2017-Nov-07 15:24N 19°12' W 096°07'0 0.0
2017-Nov-07 14:56N 19°12' W 096°07'0 0.0
2017-Nov-07 14:29N 19°12' W 096°07'0 0.0
2017-Nov-07 13:53N 19°12' W 096°07'0 0.0
2017-Nov-07 13:29N 19°12' W 096°07'0 0.0
2017-Nov-07 12:55N 19°12' W 096°07'0 0.0
2017-Nov-07 12:28N 19°12' W 096°07'1 1.4
2017-Nov-07 12:00N 19°12' W 096°07'4 7.0
2017-Nov-07 11:30N 19°11' W 096°03'3 5.9
2017-Nov-07 11:00N 19°10' W 096°00'1 1.7
2017-Nov-07 10:26N 19°09' W 096°00'0 0.0
2017-Nov-07 09:56N 19°09' W 096°00'0 0.0
2017-Nov-07 09:26N 19°09' W 096°00'0 0.0
2017-Nov-07 08:56N 19°09' W 096°00'0 0.0
2017-Nov-07 08:26N 19°09' W 096°00'0 0.0
2017-Nov-07 07:55N 19°09' W 096°00'0 0.0
2017-Nov-07 07:25N 19°09' W 096°00'0 0.0
2017-Nov-07 06:49N 19°09' W 096°00'0 0.0
2017-Nov-07 06:25N 19°09' W 096°00'0 0.0
2017-Nov-07 05:55N 19°09' W 096°00'0 0.0
2017-Nov-07 05:30N 19°09' W 096°00'0 0.0
2017-Nov-07 05:00N 19°09' W 096°00'0 0.0
2017-Nov-07 04:24N 19°09' W 096°00'0 0.0
2017-Nov-07 04:00N 19°09' W 096°00'0 0.0
2017-Nov-07 03:30N 19°09' W 096°00'0 0.0
2017-Nov-07 02:59N 19°09' W 096°00'0 0.0
2017-Nov-07 02:29N 19°09' W 096°00'0 0.0
2017-Nov-07 01:59N 19°09' W 096°00'0 0.0
2017-Nov-07 01:29N 19°09' W 096°00'0 0.0
2017-Nov-07 00:52N 19°09' W 096°00'0 0.0
2017-Nov-07 00:28N 19°09' W 096°00'0 0.0
2017-Nov-06 23:58N 19°09' W 096°00'0 0.0
2017-Nov-06 23:28N 19°09' W 096°00'0 0.0
2017-Nov-06 22:58N 19°09' W 096°00'0 0.0
2017-Nov-06 22:27N 19°09' W 096°00'0 0.0
2017-Nov-06 21:57N 19°09' W 096°00'0 0.0
2017-Nov-06 21:27N 19°09' W 096°00'0 0.0
2017-Nov-06 20:57N 19°09' W 096°00'0 0.0
2017-Nov-06 20:29N 19°09' W 096°00'0 0.0
2017-Nov-06 02:25N 19°09' W 096°00'0 0.0
2017-Nov-06 02:00N 19°09' W 096°00'0 0.0
2017-Nov-06 01:30N 19°09' W 096°00'0 0.0
2017-Nov-06 01:00N 19°09' W 096°00'0 0.0
2017-Nov-06 00:30N 19°09' W 096°00'0 0.0
2017-Nov-06 00:00N 19°09' W 096°00'0 0.0
2017-Nov-05 23:29N 19°09' W 096°00'0 0.0
2017-Nov-05 22:59N 19°09' W 096°00'0 0.0
2017-Nov-05 22:29N 19°09' W 096°00'0 0.0
2017-Nov-05 21:59N 19°09' W 096°00'0 0.0
2017-Nov-05 21:28N 19°09' W 096°00'0 0.0
2017-Nov-05 20:46N 19°09' W 096°00'0 0.0
2017-Nov-05 20:28N 19°09' W 096°00'0 0.0
2017-Nov-05 19:58N 19°09' W 096°00'0 0.0
2017-Nov-05 19:28N 19°09' W 096°00'0 0.0
2017-Nov-05 18:57N 19°09' W 096°00'0 0.0
2017-Nov-05 18:27N 19°09' W 096°00'0 0.0
2017-Nov-05 17:57N 19°09' W 096°00'0 0.0
2017-Nov-05 17:27N 19°09' W 096°00'0 0.0
2017-Nov-05 16:56N 19°09' W 096°00'0 0.0
2017-Nov-05 16:26N 19°09' W 096°00'0 0.0
2017-Nov-05 15:56N 19°09' W 096°00'0 0.0
2017-Nov-05 15:26N 19°09' W 096°00'0 0.0
2017-Nov-05 14:56N 19°09' W 096°00'0 0.0
2017-Nov-05 14:25N 19°09' W 096°00'0 0.0
2017-Nov-05 13:55N 19°09' W 096°00'0 0.0
2017-Nov-05 13:25N 19°09' W 096°00'0 0.0
2017-Nov-05 12:55N 19°09' W 096°00'0 0.0
2017-Nov-05 12:25N 19°09' W 096°00'0 0.0
2017-Nov-05 12:00N 19°09' W 096°00'0 0.0
2017-Nov-05 11:30N 19°09' W 096°00'0 0.0
2017-Nov-05 11:00N 19°09' W 096°00'0 0.0
2017-Nov-05 10:30N 19°09' W 096°00'0 0.0
2017-Nov-05 10:00N 19°09' W 096°00'0 0.0
2017-Nov-05 09:23N 19°09' W 096°00'0 0.0
2017-Nov-05 08:59N 19°09' W 096°00'0 0.0
2017-Nov-05 08:29N 19°09' W 096°00'0 0.0
2017-Nov-05 07:59N 19°09' W 096°00'0 0.0
2017-Nov-05 07:28N 19°09' W 096°00'0 0.0
2017-Nov-05 06:58N 19°09' W 096°00'0 0.0
2017-Nov-05 06:28N 19°09' W 096°00'0 0.0
2017-Nov-05 05:58N 19°09' W 096°00'0 0.0
2017-Nov-05 05:28N 19°09' W 096°00'0 0.0
2017-Nov-05 04:57N 19°09' W 096°00'0 0.0
2017-Nov-05 04:27N 19°09' W 096°00'0 0.0
2017-Nov-05 03:57N 19°09' W 096°00'0 0.0
2017-Nov-05 03:27N 19°09' W 096°00'0 0.0
2017-Nov-05 02:56N 19°09' W 096°00'0 0.0
2017-Nov-05 02:26N 19°09' W 096°00'0 0.0
2017-Nov-05 01:56N 19°09' W 096°00'0 0.0
2017-Nov-05 01:26N 19°09' W 096°00'0 0.0
2017-Nov-05 00:50N 19°09' W 096°00'0 0.0
2017-Nov-05 00:25N 19°09' W 096°00'0 0.0
2017-Nov-04 23:55N 19°09' W 096°00'0 0.0
2017-Nov-04 23:19N 19°09' W 096°00'0 0.0
2017-Nov-04 22:55N 19°09' W 096°00'0 0.0
2017-Nov-04 22:24N 19°09' W 096°00'0 0.0
2017-Nov-04 22:00N 19°09' W 096°00'0 0.0
2017-Nov-04 21:30N 19°09' W 096°00'0 0.0
2017-Nov-04 21:00N 19°09' W 096°00'0 0.0
2017-Nov-04 20:30N 19°09' W 096°00'0 0.0
2017-Nov-04 19:59N 19°09' W 096°00'0 0.0
2017-Nov-04 19:17N 19°09' W 096°00'0 0.0
2017-Nov-04 18:59N 19°09' W 096°00'0 0.0
2017-Nov-04 18:29N 19°09' W 096°00'0 0.0
2017-Nov-04 17:59N 19°09' W 096°00'0 0.0
2017-Nov-04 17:28N 19°09' W 096°00'0 0.0
2017-Nov-04 16:58N 19°09' W 096°00'0 0.0
2017-Nov-04 16:28N 19°09' W 096°00'0 0.0
2017-Nov-04 15:58N 19°09' W 096°00'0 0.0
2017-Nov-04 15:15N 19°09' W 096°00'0 0.0
2017-Nov-04 14:57N 19°09' W 096°00'0 0.0
2017-Nov-04 14:27N 19°09' W 096°00'0 0.0
2017-Nov-04 13:57N 19°09' W 096°00'0 0.0
2017-Nov-04 13:21N 19°09' W 096°00'0 0.0
2017-Nov-04 12:56N 19°09' W 096°00'0 0.0
2017-Nov-04 12:26N 19°09' W 096°00'0 0.0
2017-Nov-04 11:56N 19°09' W 096°00'0 0.0
2017-Nov-04 11:20N 19°09' W 096°00'0 0.0
2017-Nov-04 10:55N 19°09' W 096°00'0 0.0
2017-Nov-04 10:19N 19°09' W 096°00'0 0.0
2017-Nov-04 09:55N 19°09' W 096°00'0 0.0
2017-Nov-04 09:25N 19°09' W 096°00'0 0.0
2017-Nov-04 08:55N 19°09' W 096°00'0 0.0
2017-Nov-04 08:30N 19°09' W 096°00'0 0.0
2017-Nov-04 08:00N 19°09' W 096°00'0 0.0
2017-Nov-04 07:00N 19°09' W 096°00'0 0.0
2017-Nov-04 06:30N 19°09' W 096°00'0 0.0
2017-Nov-04 05:59N 19°09' W 096°00'0 0.0
2017-Nov-04 05:23N 19°09' W 096°00'0 0.0
2017-Nov-04 04:59N 19°09' W 096°00'0 0.0
2017-Nov-04 04:23N 19°09' W 096°00'0 0.0
2017-Nov-04 03:59N 19°09' W 096°00'0 0.0
2017-Nov-04 03:28N 19°09' W 096°00'0 0.0
2017-Nov-04 02:52N 19°09' W 096°00'0 0.0
2017-Nov-04 02:28N 19°09' W 096°00'0 0.0
2017-Nov-04 01:58N 19°09' W 096°00'0 0.0
2017-Nov-04 01:27N 19°09' W 096°00'0 0.0
2017-Nov-04 00:57N 19°09' W 096°00'0 0.0
2017-Nov-04 00:16N 19°09' W 096°00'0 0.3
2017-Nov-04 00:00N 19°09' W 096°00'2 3.9
2017-Nov-03 23:31N 19°11' W 095°59'4 8.2
2017-Nov-03 23:00N 19°14' W 095°56'611.3
2017-Nov-03 22:30N 19°15' W 095°50'611.6
2017-Nov-03 22:01N 19°14' W 095°44'611.9
2017-Nov-03 21:30N 19°11' W 095°38'  

Dump ship's entire track history